Terminal Aerodrome Forecast
Issued by NWS Pueblo, CO

Home | Current Version | Previous Version | Text Only | Print | Product List | Glossary On
Versions: 1 2 3 4 5 6 7 8 9 10 11 12 13 14 15
000
FTUS45 KPUB 282329
TAFALS
TAF
KALS 282329Z 2900/2924 23012G22KT P6SM FEW110 SCT200
     FM290100 18011KT P6SM SCT200
     FM290600 VRB06KT P6SM FEW200
     FM291700 24013KT P6SM SCT120=

USA.gov is the U.S. government's official web portal to all federal, state and local government web resources and services.